createdAt,value
2023-11-28T00:01:47.320Z,63.16
2023-11-28T00:04:20.365Z,63.17
2023-11-28T00:06:55.342Z,63.31
2023-11-28T00:09:28.211Z,63.43
2023-11-28T00:12:01.083Z,63.42
2023-11-28T00:14:33.984Z,63.48
2023-11-28T00:17:07.212Z,63.58
2023-11-28T00:19:40.191Z,63.43
2023-11-28T00:22:14.472Z,63.52
2023-11-28T00:24:47.378Z,63.32
2023-11-28T00:27:20.237Z,63.43
2023-11-28T00:29:53.676Z,63.32
2023-11-28T00:32:26.679Z,63.26
2023-11-28T00:35:02.805Z,63.48
2023-11-28T00:37:40.982Z,63.25
2023-11-28T00:40:15.055Z,63.31
2023-11-28T00:42:48.819Z,62.78
2023-11-28T00:45:25.780Z,63.00
2023-11-28T00:47:59.802Z,63.02
2023-11-28T00:50:32.881Z,63.19
2023-11-28T00:53:07.300Z,63.26
2023-11-28T00:55:40.469Z,63.31
2023-11-28T00:58:13.457Z,63.39
2023-11-28T01:00:46.350Z,63.55
2023-11-28T01:03:19.256Z,63.57
2023-11-28T01:05:52.447Z,63.63
2023-11-28T01:08:26.932Z,63.77
2023-11-28T01:10:59.952Z,63.96
2023-11-28T01:13:33.007Z,63.99
2023-11-28T01:16:06.685Z,63.96
2023-11-28T01:18:39.621Z,64.20
2023-11-28T01:21:13.725Z,64.17
2023-11-28T01:23:47.970Z,64.33
2023-11-28T01:26:20.938Z,64.21
2023-11-28T01:28:53.900Z,64.26
2023-11-28T01:31:29.478Z,64.34
2023-11-28T01:34:02.628Z,64.66
2023-11-28T01:36:35.561Z,64.53
2023-11-28T01:39:10.067Z,64.66
2023-11-28T01:41:47.799Z,64.64
2023-11-28T01:44:20.831Z,64.79
2023-11-28T01:46:55.026Z,64.84
2023-11-28T01:49:33.947Z,65.02
2023-11-28T01:52:09.120Z,65.07
2023-11-28T01:54:45.135Z,65.23
2023-11-28T01:57:18.164Z,65.33
2023-11-28T01:59:51.198Z,65.37
2023-11-28T02:02:24.691Z,65.35
2023-11-28T02:04:57.646Z,65.18
2023-11-28T02:07:30.832Z,65.42
2023-11-28T02:10:05.564Z,65.53
2023-11-28T02:12:38.503Z,65.40
2023-11-28T02:15:12.134Z,65.57
2023-11-28T02:17:45.216Z,65.65
2023-11-28T02:20:20.956Z,65.57
2023-11-28T02:22:53.893Z,65.82
2023-11-28T02:25:29.956Z,65.78
2023-11-28T02:28:04.917Z,66.02
2023-11-28T02:30:37.795Z,65.63
2023-11-28T02:33:10.795Z,65.93
2023-11-28T02:35:43.865Z,65.78
2023-11-28T02:38:17.285Z,65.91
2023-11-28T02:40:50.157Z,65.91
2023-11-28T02:43:24.559Z,65.92
2023-11-28T02:45:57.698Z,66.05
2023-11-28T02:48:31.611Z,65.96
2023-11-28T02:51:06.075Z,66.06
2023-11-28T02:53:39.977Z,66.12
2023-11-28T02:56:13.217Z,65.62
2023-11-28T02:58:47.582Z,65.70
2023-11-28T03:01:20.715Z,65.95
2023-11-28T03:03:53.601Z,65.94
2023-11-28T03:06:26.660Z,66.06
2023-11-28T03:08:59.506Z,66.01
2023-11-28T03:11:32.431Z,66.01
2023-11-28T03:14:06.801Z,66.12
2023-11-28T03:16:40.180Z,66.16
2023-11-28T03:19:13.169Z,66.09
2023-11-28T03:21:46.086Z,66.13
2023-11-28T03:24:19.069Z,66.09
2023-11-28T03:26:51.937Z,65.96
2023-11-28T03:29:26.221Z,66.27
2023-11-28T03:31:59.259Z,66.03
2023-11-28T03:34:32.446Z,66.17
2023-11-28T03:37:05.363Z,66.21
2023-11-28T03:39:38.205Z,66.32
2023-11-28T03:42:11.572Z,66.37
2023-11-28T03:44:45.791Z,66.13
2023-11-28T03:47:19.108Z,66.17
2023-11-28T03:49:52.010Z,66.41
2023-11-28T03:52:24.925Z,66.35
2023-11-28T03:54:58.182Z,66.30
2023-11-28T03:57:31.259Z,66.45
2023-11-28T04:00:07.168Z,66.41
2023-11-28T04:02:40.289Z,66.28
2023-11-28T04:05:14.770Z,66.37
2023-11-28T04:07:47.871Z,66.26
2023-11-28T04:10:20.730Z,66.15
2023-11-28T04:12:54.786Z,66.40
2023-11-28T04:15:29.165Z,66.32
2023-11-28T04:18:02.846Z,66.30
2023-11-28T04:20:37.139Z,66.46
2023-11-28T04:23:10.357Z,66.48
2023-11-28T04:25:43.320Z,66.53
2023-11-28T04:28:16.268Z,66.38
2023-11-28T04:30:57.426Z,66.41
2023-11-28T04:33:32.839Z,66.38
2023-11-28T04:36:07.328Z,66.40
2023-11-28T04:38:40.369Z,66.40
2023-11-28T04:41:14.236Z,66.30
2023-11-28T04:43:48.707Z,66.42
2023-11-28T04:46:23.590Z,66.38
2023-11-28T04:48:56.667Z,66.18
2023-11-28T04:51:29.528Z,66.35
2023-11-28T04:54:02.467Z,66.34
2023-11-28T04:56:35.765Z,66.10
2023-11-28T04:59:09.093Z,66.32
2023-11-28T05:01:48.211Z,66.34
2023-11-28T05:04:21.375Z,66.18
2023-11-28T05:06:54.625Z,66.08
2023-11-28T05:09:28.674Z,66.11
2023-11-28T05:12:01.687Z,66.12
2023-11-28T05:14:35.973Z,66.12
2023-11-28T05:17:10.869Z,66.12
2023-11-28T05:19:44.116Z,66.08
2023-11-28T05:22:20.772Z,66.28
2023-11-28T05:24:54.204Z,65.99
2023-11-28T05:27:27.115Z,66.04
2023-11-28T05:30:00.080Z,66.03
2023-11-28T05:32:35.108Z,66.29
2023-11-28T05:35:08.927Z,66.10
2023-11-28T05:37:41.932Z,66.27
2023-11-28T05:40:16.651Z,66.26
2023-11-28T05:42:49.680Z,66.27
2023-11-28T05:45:22.591Z,66.04
2023-11-28T05:47:57.003Z,66.12
2023-11-28T05:50:30.157Z,66.22
2023-11-28T05:53:03.203Z,66.04
2023-11-28T05:55:36.192Z,66.01
2023-11-28T05:58:10.164Z,65.96
2023-11-28T06:00:42.926Z,65.76
2023-11-28T06:03:17.532Z,65.87
2023-11-28T06:05:50.485Z,65.89
2023-11-28T06:08:23.481Z,66.07
2023-11-28T06:10:56.939Z,65.96
2023-11-28T06:13:29.807Z,65.93
2023-11-28T06:16:06.148Z,66.07
2023-11-28T06:18:42.549Z,66.03
2023-11-28T06:21:16.175Z,66.01
2023-11-28T06:23:50.845Z,65.97
2023-11-28T06:26:26.726Z,65.99
2023-11-28T06:28:59.770Z,66.20
2023-11-28T06:31:32.755Z,65.98
2023-11-28T06:34:07.105Z,66.10
2023-11-28T06:36:40.035Z,66.11
2023-11-28T06:39:12.873Z,66.09
2023-11-28T06:41:46.405Z,66.08
2023-11-28T06:44:20.186Z,65.89
2023-11-28T06:46:53.138Z,65.92
2023-11-28T06:49:27.450Z,65.93
2023-11-28T06:52:01.913Z,65.97
2023-11-28T06:54:35.321Z,65.87
2023-11-28T06:57:08.151Z,65.67
2023-11-28T06:59:41.144Z,65.65
2023-11-28T07:02:14.220Z,65.79
2023-11-28T07:04:48.836Z,65.65
2023-11-28T07:07:22.279Z,65.64
2023-11-28T07:09:56.078Z,65.64
2023-11-28T07:12:29.081Z,65.70
2023-11-28T07:15:01.959Z,65.56
2023-11-28T07:17:35.015Z,65.52
2023-11-28T07:20:11.186Z,65.30
2023-11-28T07:22:44.176Z,65.38
2023-11-28T07:25:17.120Z,65.21
2023-11-28T07:27:49.938Z,65.40
2023-11-28T07:30:22.807Z,65.14
2023-11-28T07:32:55.734Z,65.09
2023-11-28T07:35:30.008Z,65.00
2023-11-28T07:38:03.724Z,65.04
2023-11-28T07:40:38.511Z,65.05
2023-11-28T07:43:11.376Z,64.80
2023-11-28T07:45:44.343Z,64.96
2023-11-28T07:48:17.393Z,64.86
2023-11-28T07:50:51.682Z,64.86
2023-11-28T07:53:24.607Z,64.66
2023-11-28T07:55:57.462Z,64.57
2023-11-28T07:58:30.431Z,64.59
2023-11-28T08:01:03.346Z,64.74
2023-11-28T08:03:36.277Z,64.60
2023-11-28T08:06:13.484Z,64.50
2023-11-28T08:08:46.501Z,64.45
2023-11-28T08:11:19.569Z,64.41
2023-11-28T08:13:52.680Z,64.16
2023-11-28T08:16:25.682Z,64.38
2023-11-28T08:18:58.580Z,64.35
2023-11-28T08:21:32.796Z,64.12
2023-11-28T08:24:06.538Z,64.13
2023-11-28T08:26:39.585Z,64.19
2023-11-28T08:29:12.557Z,64.12
2023-11-28T08:31:45.568Z,64.12
2023-11-28T08:34:18.620Z,64.16
2023-11-28T08:36:53.107Z,63.96
2023-11-28T08:39:29.587Z,64.01
2023-11-28T08:42:02.476Z,63.98
2023-11-28T08:44:36.662Z,63.87
2023-11-28T08:47:09.554Z,63.94
2023-11-28T08:49:44.912Z,63.96
2023-11-28T08:52:23.880Z,63.88
2023-11-28T08:55:07.085Z,63.76
2023-11-28T08:57:40.077Z,63.89
2023-11-28T09:00:18.094Z,63.68
2023-11-28T09:02:52.731Z,63.54
2023-11-28T09:05:25.771Z,63.55
2023-11-28T09:08:22.781Z,63.51
2023-11-28T09:10:55.740Z,63.23
2023-11-28T09:13:28.934Z,63.40
2023-11-28T09:16:04.182Z,63.49
2023-11-28T09:18:37.733Z,63.41
2023-11-28T09:21:13.371Z,63.42
2023-11-28T09:23:47.676Z,63.44
2023-11-28T09:26:20.621Z,63.51
2023-11-28T09:28:53.655Z,63.34
2023-11-28T09:31:32.525Z,63.41
2023-11-28T09:34:05.507Z,63.29
2023-11-28T09:36:38.652Z,63.24
2023-11-28T09:39:13.379Z,63.36
2023-11-28T09:41:49.132Z,63.32
2023-11-28T09:44:27.282Z,63.36
2023-11-28T09:47:08.638Z,63.23
2023-11-28T09:49:43.748Z,63.15
2023-11-28T09:52:17.907Z,63.29
2023-11-28T09:54:54.004Z,62.94
2023-11-28T09:57:33.417Z,63.04
2023-11-28T10:00:12.159Z,63.03
2023-11-28T10:02:46.015Z,63.02
2023-11-28T10:05:20.097Z,62.81
2023-11-28T10:07:55.278Z,62.71
2023-11-28T10:10:29.591Z,62.81
2023-11-28T10:13:02.497Z,62.74
2023-11-28T10:15:35.374Z,62.76
2023-11-28T10:18:08.899Z,62.58
2023-11-28T10:20:41.820Z,62.52
2023-11-28T10:23:16.983Z,62.48
2023-11-28T10:25:51.681Z,62.50
2023-11-28T10:28:24.726Z,62.70
2023-11-28T10:30:57.628Z,62.64
2023-11-28T10:33:30.599Z,62.57
2023-11-28T10:36:03.580Z,62.43
2023-11-28T10:38:38.166Z,62.31
2023-11-28T10:41:12.435Z,62.41
2023-11-28T10:43:46.980Z,62.31
2023-11-28T10:46:20.302Z,62.15
2023-11-28T10:48:53.342Z,62.16
2023-11-28T10:51:27.487Z,62.07
2023-11-28T10:54:05.497Z,62.14
2023-11-28T10:56:48.283Z,62.07
2023-11-28T10:59:27.483Z,61.91
2023-11-28T11:02:02.446Z,61.81
2023-11-28T11:04:36.254Z,61.56
2023-11-28T11:07:09.780Z,61.65
2023-11-28T11:09:42.652Z,61.57
2023-11-28T11:12:17.934Z,61.53
2023-11-28T11:14:58.711Z,61.51
2023-11-28T11:17:41.989Z,61.42
2023-11-28T11:20:18.410Z,61.42
2023-11-28T11:22:55.154Z,61.33
2023-11-28T11:25:40.525Z,61.36
2023-11-28T11:28:15.172Z,61.29
2023-11-28T11:30:48.259Z,61.27
2023-11-28T11:33:25.599Z,61.13
2023-11-28T11:36:10.912Z,61.32
2023-11-28T11:38:48.111Z,61.11
2023-11-28T11:41:22.148Z,61.09
2023-11-28T11:43:56.884Z,61.15
2023-11-28T11:46:29.844Z,61.03
2023-11-28T11:49:03.769Z,60.96
2023-11-28T11:51:36.487Z,60.98
2023-11-28T11:54:12.307Z,61.02
2023-11-28T11:56:45.183Z,61.03
2023-11-28T11:59:21.678Z,61.02
2023-11-28T12:01:55.037Z,61.04
2023-11-28T12:04:28.240Z,61.13
2023-11-28T12:07:06.748Z,61.07
2023-11-28T12:09:40.205Z,60.86
2023-11-28T12:12:14.455Z,60.95
2023-11-28T12:14:49.112Z,60.88
2023-11-28T12:17:22.560Z,60.86
2023-11-28T12:19:57.085Z,60.67
2023-11-28T12:22:31.422Z,60.80
2023-11-28T12:25:04.586Z,60.92
2023-11-28T12:27:37.471Z,60.77
2023-11-28T12:30:13.529Z,60.84
2023-11-28T12:32:46.994Z,60.89
2023-11-28T12:35:21.915Z,61.00
2023-11-28T12:37:56.045Z,60.81
2023-11-28T12:40:29.193Z,61.06
2023-11-28T12:43:03.875Z,60.96
2023-11-28T12:45:38.085Z,61.06
2023-11-28T12:48:12.596Z,60.87
2023-11-28T12:50:47.797Z,60.87
2023-11-28T12:53:21.196Z,60.76
2023-11-28T12:55:54.223Z,60.82
2023-11-28T12:58:27.531Z,60.89
2023-11-28T13:01:01.770Z,60.83
2023-11-28T13:03:37.052Z,60.87
2023-11-28T13:06:10.894Z,60.74
2023-11-28T13:08:43.789Z,60.79
2023-11-28T13:11:17.838Z,60.89
2023-11-28T13:13:50.983Z,60.70
2023-11-28T13:16:27.852Z,60.71
2023-11-28T13:19:01.623Z,60.83
2023-11-28T13:21:37.064Z,60.85
2023-11-28T13:24:16.251Z,60.96
2023-11-28T13:26:49.105Z,60.95
2023-11-28T13:29:24.020Z,61.06
2023-11-28T13:31:59.821Z,61.02
2023-11-28T13:34:32.700Z,61.13
2023-11-28T13:37:07.185Z,60.97
2023-11-28T13:39:42.317Z,61.16
2023-11-28T13:42:15.212Z,61.14
2023-11-28T13:44:48.059Z,61.07
2023-11-28T13:47:22.897Z,61.11
2023-11-28T13:49:57.323Z,61.05
2023-11-28T13:52:30.390Z,61.20
2023-11-28T13:55:03.349Z,61.24
2023-11-28T13:57:36.270Z,61.09
2023-11-28T14:00:09.870Z,61.12
2023-11-28T14:02:45.772Z,61.24
2023-11-28T14:05:20.138Z,61.26
2023-11-28T14:07:53.055Z,60.99
2023-11-28T14:10:26.002Z,61.01
2023-11-28T14:12:58.927Z,61.08
2023-11-28T14:15:32.283Z,61.11
2023-11-28T14:18:07.136Z,61.30
2023-11-28T14:20:40.039Z,61.24
2023-11-28T14:23:12.946Z,61.39
2023-11-28T14:25:46.422Z,61.38
2023-11-28T14:28:19.334Z,61.38
2023-11-28T14:30:52.237Z,61.20
2023-11-28T14:33:29.787Z,61.39
2023-11-28T14:36:02.795Z,61.27
2023-11-28T14:38:35.725Z,61.35
2023-11-28T14:41:09.541Z,61.33
2023-11-28T14:43:42.466Z,61.45
2023-11-28T14:46:15.469Z,61.35
2023-11-28T14:48:50.249Z,61.54
2023-11-28T14:51:23.140Z,61.45
2023-11-28T14:53:56.044Z,61.55
2023-11-28T14:56:29.346Z,61.61
2023-11-28T14:59:03.849Z,61.58
2023-11-28T15:01:38.540Z,61.53
2023-11-28T15:04:15.992Z,61.64
2023-11-28T15:06:51.294Z,61.59
2023-11-28T15:09:25.087Z,61.47
2023-11-28T15:11:58.907Z,61.39
2023-11-28T15:14:31.913Z,61.78
2023-11-28T15:17:04.945Z,61.75
2023-11-28T15:19:40.633Z,61.58
2023-11-28T15:22:15.578Z,61.83
2023-11-28T15:24:51.451Z,61.87
2023-11-28T15:27:24.615Z,61.95
2023-11-28T15:29:59.923Z,62.00
2023-11-28T15:32:33.291Z,62.14
2023-11-28T15:35:12.789Z,62.15
2023-11-28T15:37:52.800Z,62.24
2023-11-28T15:40:33.679Z,62.24
2023-11-28T15:43:10.493Z,62.42
2023-11-28T15:45:43.359Z,62.34
2023-11-28T15:48:16.327Z,62.31
2023-11-28T15:50:51.133Z,62.49
2023-11-28T15:53:24.655Z,62.47
2023-11-28T15:55:57.626Z,62.59
2023-11-28T15:58:30.542Z,62.66
2023-11-28T16:01:03.467Z,62.77
2023-11-28T16:03:38.874Z,62.79
2023-11-28T16:06:17.037Z,63.00
2023-11-28T16:08:52.332Z,63.16
2023-11-28T16:11:25.882Z,63.19
2023-11-28T16:13:59.067Z,63.12
2023-11-28T16:16:31.982Z,63.20
2023-11-28T16:19:05.404Z,63.38
2023-11-28T16:21:40.122Z,62.90
2023-11-28T16:24:15.592Z,63.17
2023-11-28T16:26:50.486Z,63.35
2023-11-28T16:29:23.497Z,63.31
2023-11-28T16:31:56.381Z,63.34
2023-11-28T16:34:29.312Z,63.60
2023-11-28T16:37:03.618Z,63.57
2023-11-28T16:39:41.425Z,63.72
2023-11-28T16:42:15.641Z,63.75
2023-11-28T16:44:48.612Z,63.80
2023-11-28T16:47:21.802Z,63.81
2023-11-28T16:49:54.701Z,63.74
2023-11-28T16:52:29.220Z,63.94
2023-11-28T16:55:02.068Z,64.02
2023-11-28T16:57:35.523Z,64.18
2023-11-28T17:00:11.623Z,64.26
2023-11-28T17:02:44.929Z,64.38
2023-11-28T17:05:19.515Z,64.24
2023-11-28T17:07:53.911Z,64.35
2023-11-28T17:10:29.446Z,64.48
2023-11-28T17:13:04.131Z,64.38
2023-11-28T17:15:37.804Z,64.46
2023-11-28T17:18:10.878Z,64.48
2023-11-28T17:20:44.162Z,64.56
2023-11-28T17:23:18.639Z,64.79
2023-11-28T17:25:51.589Z,64.82
2023-11-28T17:28:24.430Z,64.79
2023-11-28T17:30:57.958Z,65.10
2023-11-28T17:33:31.451Z,64.90
2023-11-28T17:36:04.805Z,64.96
2023-11-28T17:38:39.438Z,65.13
2023-11-28T17:41:17.852Z,65.21
2023-11-28T17:43:50.727Z,65.04
2023-11-28T17:46:23.637Z,65.18
2023-11-28T17:48:59.893Z,64.97
2023-11-28T17:51:33.273Z,65.17
2023-11-28T17:54:07.693Z,65.20
2023-11-28T17:56:42.847Z,65.25
2023-11-28T17:59:15.736Z,65.22
2023-11-28T18:01:49.279Z,65.09
2023-11-28T18:04:22.170Z,65.03
2023-11-28T18:06:58.498Z,64.88
2023-11-28T18:09:33.616Z,65.32
2023-11-28T18:12:07.394Z,65.23
2023-11-28T18:14:40.508Z,65.31
2023-11-28T18:17:13.527Z,65.39
2023-11-28T18:19:46.447Z,65.60
2023-11-28T18:22:20.746Z,65.44
2023-11-28T18:24:57.485Z,65.49
2023-11-28T18:27:30.499Z,65.61
2023-11-28T18:30:03.416Z,65.62
2023-11-28T18:32:36.375Z,65.48
2023-11-28T18:35:09.574Z,65.67
2023-11-28T18:37:42.552Z,65.58
2023-11-28T18:40:16.904Z,65.90
2023-11-28T18:42:50.147Z,65.80
2023-11-28T18:45:23.114Z,65.83
2023-11-28T18:47:57.643Z,65.92
2023-11-28T18:50:32.478Z,65.92
2023-11-28T18:53:05.472Z,65.96
2023-11-28T18:55:39.951Z,66.05
2023-11-28T18:58:12.796Z,65.97
2023-11-28T19:00:45.878Z,65.79
2023-11-28T19:03:19.258Z,65.73
2023-11-28T19:05:53.170Z,65.95
2023-11-28T19:08:26.113Z,65.95
2023-11-28T19:11:00.386Z,65.67
2023-11-28T19:13:33.656Z,65.87
2023-11-28T19:16:06.999Z,65.85
2023-11-28T19:18:41.697Z,65.77
2023-11-28T19:21:15.107Z,65.99
2023-11-28T19:23:51.062Z,65.85
2023-11-28T19:26:25.433Z,66.05
2023-11-28T19:28:58.979Z,65.84
2023-11-28T19:31:33.360Z,65.94
2023-11-28T19:34:06.799Z,65.94
2023-11-28T19:36:39.650Z,65.77
2023-11-28T19:39:21.935Z,66.16
2023-11-28T19:41:58.061Z,66.16
2023-11-28T19:44:31.027Z,65.97
2023-11-28T19:47:05.730Z,66.00
2023-11-28T19:49:38.854Z,66.10
2023-11-28T19:52:11.834Z,66.02
2023-11-28T19:54:44.796Z,66.11
2023-11-28T19:57:19.858Z,66.13
2023-11-28T19:59:53.272Z,66.18
2023-11-28T20:02:26.620Z,66.04
2023-11-28T20:05:01.817Z,66.19
2023-11-28T20:07:39.316Z,66.13
2023-11-28T20:10:12.413Z,66.26
2023-11-28T20:12:48.247Z,66.09
2023-11-28T20:15:21.118Z,66.09
2023-11-28T20:17:54.109Z,66.29
2023-11-28T20:20:27.700Z,66.18
2023-11-28T20:23:01.063Z,66.16
2023-11-28T20:25:34.268Z,66.31
2023-11-28T20:28:08.628Z,66.27
2023-11-28T20:30:42.313Z,66.31
2023-11-28T20:33:15.233Z,66.32
2023-11-28T20:35:53.206Z,66.48
2023-11-28T20:38:26.243Z,66.36
2023-11-28T20:41:07.366Z,66.37
2023-11-28T20:43:51.227Z,66.20
2023-11-28T20:46:25.904Z,66.26
2023-11-28T20:49:06.192Z,66.46
2023-11-28T20:51:39.026Z,66.35
2023-11-28T20:54:12.361Z,66.37
2023-11-28T20:56:45.460Z,66.42
2023-11-28T20:59:20.250Z,66.17
2023-11-28T21:01:53.289Z,66.31
2023-11-28T21:04:26.230Z,66.16
2023-11-28T21:07:10.078Z,66.14
2023-11-28T21:09:43.669Z,66.18
2023-11-28T21:12:18.865Z,66.11
2023-11-28T21:14:53.536Z,66.39
2023-11-28T21:17:26.698Z,66.33
2023-11-28T21:20:00.536Z,66.31
2023-11-28T21:22:34.275Z,66.30
2023-11-28T21:25:08.077Z,66.26
2023-11-28T21:27:41.621Z,66.17
2023-11-28T21:30:20.317Z,66.41
2023-11-28T21:32:53.275Z,66.30
2023-11-28T21:35:26.934Z,66.28
2023-11-28T21:38:00.151Z,66.34
2023-11-28T21:40:33.743Z,66.21
2023-11-28T21:43:07.528Z,66.28
2023-11-28T21:45:41.989Z,66.26
2023-11-28T21:48:22.203Z,66.24
2023-11-28T21:50:59.023Z,66.16
2023-11-28T21:53:37.046Z,66.31
2023-11-28T21:56:10.443Z,66.41
2023-11-28T21:58:43.385Z,66.27
2023-11-28T22:01:17.888Z,66.36
2023-11-28T22:03:51.037Z,66.21
2023-11-28T22:06:24.351Z,66.52
2023-11-28T22:09:02.379Z,66.25
2023-11-28T22:11:36.552Z,66.21
2023-11-28T22:14:09.523Z,66.14
2023-11-28T22:16:43.834Z,66.02
2023-11-28T22:19:16.956Z,65.91
2023-11-28T22:21:49.872Z,65.90
2023-11-28T22:24:23.976Z,65.92
2023-11-28T22:26:56.970Z,65.88
2023-11-28T22:29:30.044Z,66.09
2023-11-28T22:32:05.162Z,66.20
2023-11-28T22:34:38.155Z,66.15
2023-11-28T22:37:11.879Z,66.09
2023-11-28T22:39:44.926Z,66.03
2023-11-28T22:42:17.781Z,66.01
2023-11-28T22:44:51.489Z,65.93
2023-11-28T22:47:25.872Z,66.15
2023-11-28T22:49:58.787Z,66.11
2023-11-28T22:52:31.727Z,66.14
2023-11-28T22:55:07.579Z,66.05
2023-11-28T22:57:40.627Z,66.08
2023-11-28T23:00:16.412Z,66.08
2023-11-28T23:02:50.880Z,66.05
2023-11-28T23:05:23.842Z,66.01
2023-11-28T23:07:56.734Z,66.13
2023-11-28T23:10:29.662Z,66.19
2023-11-28T23:13:02.525Z,66.13
2023-11-28T23:15:35.397Z,66.06
2023-11-28T23:18:09.684Z,66.17
2023-11-28T23:20:43.859Z,66.26
2023-11-28T23:23:16.770Z,66.17
2023-11-28T23:25:49.801Z,66.21
2023-11-28T23:28:22.732Z,65.98
2023-11-28T23:30:56.184Z,66.10
2023-11-28T23:33:31.242Z,66.19
2023-11-28T23:36:04.462Z,66.36
2023-11-28T23:38:37.404Z,66.03
2023-11-28T23:41:10.572Z,66.26
2023-11-28T23:43:43.505Z,66.25
2023-11-28T23:46:16.439Z,66.30
2023-11-28T23:48:53.532Z,66.30
2023-11-28T23:51:26.563Z,66.21
2023-11-28T23:53:59.677Z,66.36
2023-11-28T23:56:32.685Z,66.32
2023-11-28T23:59:05.841Z,66.31
